Weather at General E. Mosconi Airport

Public forecast

Using degrees Celsius for public forecast. Weather courtesy of forecast.io.

Current aviation weather report (METAR) for General E. Mosconi Airport

Retrieved 2020/12/04 04:00 UTC (40 minutes ago):

SAVC 040400Z 32002KT CAVOK 11/04 Q1023

Aviation forecast (TAF) for General E. Mosconi Airport

Retrieved 2020-12-04 00:00 UTC (5 hours ago):

TAF SAVC 032300Z 0400/0424 VRB05KT 9999 SCT030 TX18/0420Z TN07/0410Z BECMG 0413/0415 05017KT